首页
METAR-TAF:

METAR-TAF

机场 :

格尔夫海岸, 阿拉巴马州, 美国

纬度: 30-17-23N, 经度: 087-40-18W, 海拔: 5米

当前天气观测

该预报发布于24分钟前的20:15 UTC
风速5节,风向北转东北
温度 10°C
湿度 93%
气压 1018 hPa
能見度: 11.3公里
散云层高于2900英尺
多云层高于3400英尺
阴天层高于4400英尺

METAR: KJKA 262015Z AUTO 03005KT 7SM RA SCT029 BKN034 OVC044 10/09 A3007 RMK AO2 P0002 T01000092

时间: 14:39 (20:39 UTC)


TAF: 丢失

超过4000个机场的气象观测和天气预报(METAR&TAF报告)。

可查询的气象台以黄色和红色小点在地图上表示。

将鼠标移到小点上方,可查看气象台名称。

然后点击查看天气观测和预报。

如需切换地图:点击带黑十字的绿色按钮放大地图;点击带横线的绿色按钮缩小地图;或者点击绿色箭头查看邻近地区的地图。


METAR-TAF: